sensor_id;sensor_type;location;lat;lon;timestamp;temperature;humidity
63277;DHT22;49403;51.046;13.780;2024-01-30T00:00:12;6.20;74.60
63277;DHT22;49403;51.046;13.780;2024-01-30T00:00:43;6.20;74.20
63277;DHT22;49403;51.046;13.780;2024-01-30T00:01:14;6.00;74.40
63277;DHT22;49403;51.046;13.780;2024-01-30T00:01:45;6.20;75.20
63277;DHT22;49403;51.046;13.780;2024-01-30T00:02:17;6.20;74.80
63277;DHT22;49403;51.046;13.780;2024-01-30T00:02:47;6.20;74.40
63277;DHT22;49403;51.046;13.780;2024-01-30T00:03:18;6.20;74.30
63277;DHT22;49403;51.046;13.780;2024-01-30T00:03:49;6.20;74.30
63277;DHT22;49403;51.046;13.780;2024-01-30T00:04:21;6.20;74.40
63277;DHT22;49403;51.046;13.780;2024-01-30T00:04:52;6.20;74.30
63277;DHT22;49403;51.046;13.780;2024-01-30T00:05:23;6.20;74.40
63277;DHT22;49403;51.046;13.780;2024-01-30T00:05:54;6.20;74.30
63277;DHT22;49403;51.046;13.780;2024-01-30T00:06:25;5.30;73.40
63277;DHT22;49403;51.046;13.780;2024-01-30T00:06:56;6.20;74.40
63277;DHT22;49403;51.046;13.780;2024-01-30T00:07:27;6.20;74.10
63277;DHT22;49403;51.046;13.780;2024-01-30T00:07:58;7.90;75.80
63277;DHT22;49403;51.046;13.780;2024-01-30T00:08:29;6.20;74.20
63277;DHT22;49403;51.046;13.780;2024-01-30T00:09:00;6.20;74.30
63277;DHT22;49403;51.046;13.780;2024-01-30T00:09:31;6.20;74.10
63277;DHT22;49403;51.046;13.780;2024-01-30T00:10:02;6.20;74.10
63277;DHT22;49403;51.046;13.780;2024-01-30T00:10:33;6.20;74.60
63277;DHT22;49403;51.046;13.780;2024-01-30T00:11:04;6.20;74.20
63277;DHT22;49403;51.046;13.780;2024-01-30T00:11:35;6.20;74.20
63277;DHT22;49403;51.046;13.780;2024-01-30T00:12:06;6.30;74.40
63277;DHT22;49403;51.046;13.780;2024-01-30T00:12:37;6.20;74.30
63277;DHT22;49403;51.046;13.780;2024-01-30T00:13:08;6.20;74.30
63277;DHT22;49403;51.046;13.780;2024-01-30T00:13:39;6.20;74.30
63277;DHT22;49403;51.046;13.780;2024-01-30T00:14:10;6.20;74.20
63277;DHT22;49403;51.046;13.780;2024-01-30T00:14:44;6.20;74.40
63277;DHT22;49403;51.046;13.780;2024-01-30T00:15:15;6.20;74.20
63277;DHT22;49403;51.046;13.780;2024-01-30T00:15:46;6.20;74.20
63277;DHT22;49403;51.046;13.780;2024-01-30T00:16:23;6.10;73.80
63277;DHT22;49403;51.046;13.780;2024-01-30T00:16:54;6.20;73.90
63277;DHT22;49403;51.046;13.780;2024-01-30T00:17:25;6.20;74.20
63277;DHT22;49403;51.046;13.780;2024-01-30T00:17:56;6.00;74.10
63277;DHT22;49403;51.046;13.780;2024-01-30T00:18:27;6.20;74.30
63277;DHT22;49403;51.046;13.780;2024-01-30T00:18:58;6.20;74.30
63277;DHT22;49403;51.046;13.780;2024-01-30T00:19:29;6.40;74.40
63277;DHT22;49403;51.046;13.780;2024-01-30T00:20:00;6.20;74.30
63277;DHT22;49403;51.046;13.780;2024-01-30T00:20:31;6.10;74.20
63277;DHT22;49403;51.046;13.780;2024-01-30T00:21:02;6.30;74.40
63277;DHT22;49403;51.046;13.780;2024-01-30T00:21:33;6.10;74.30
63277;DHT22;49403;51.046;13.780;2024-01-30T00:22:04;6.00;74.00
63277;DHT22;49403;51.046;13.780;2024-01-30T00:22:35;6.10;74.40
63277;DHT22;49403;51.046;13.780;2024-01-30T00:23:06;6.10;74.40
63277;DHT22;49403;51.046;13.780;2024-01-30T00:23:37;7.10;75.30
63277;DHT22;49403;51.046;13.780;2024-01-30T00:24:08;6.10;74.40
63277;DHT22;49403;51.046;13.780;2024-01-30T00:24:39;6.10;74.40
63277;DHT22;49403;51.046;13.780;2024-01-30T00:25:10;6.10;74.40
63277;DHT22;49403;51.046;13.780;2024-01-30T00:25:41;6.10;74.30
63277;DHT22;49403;51.046;13.780;2024-01-30T00:26:12;6.10;74.30
63277;DHT22;49403;51.046;13.780;2024-01-30T00:26:43;6.10;74.00
63277;DHT22;49403;51.046;13.780;2024-01-30T00:27:14;7.50;75.70
63277;DHT22;49403;51.046;13.780;2024-01-30T00:27:45;6.10;74.60
63277;DHT22;49403;51.046;13.780;2024-01-30T00:28:16;6.10;74.30
63277;DHT22;49403;51.046;13.780;2024-01-30T00:28:47;6.10;74.30
63277;DHT22;49403;51.046;13.780;2024-01-30T00:29:18;6.10;74.40
63277;DHT22;49403;51.046;13.780;2024-01-30T00:29:50;6.10;74.40
63277;DHT22;49403;51.046;13.780;2024-01-30T00:30:21;6.10;74.50
63277;DHT22;49403;51.046;13.780;2024-01-30T00:30:52;6.10;74.40
63277;DHT22;49403;51.046;13.780;2024-01-30T00:31:23;6.10;74.40
63277;DHT22;49403;51.046;13.780;2024-01-30T00:31:54;6.00;74.50
63277;DHT22;49403;51.046;13.780;2024-01-30T00:32:24;6.00;74.40
63277;DHT22;49403;51.046;13.780;2024-01-30T00:32:55;6.10;74.60
63277;DHT22;49403;51.046;13.780;2024-01-30T00:33:26;6.10;75.10
63277;DHT22;49403;51.046;13.780;2024-01-30T00:33:57;6.00;74.60
63277;DHT22;49403;51.046;13.780;2024-01-30T00:34:28;6.70;75.20
63277;DHT22;49403;51.046;13.780;2024-01-30T00:34:59;6.00;74.50
63277;DHT22;49403;51.046;13.780;2024-01-30T00:35:30;6.00;75.10
63277;DHT22;49403;51.046;13.780;2024-01-30T00:36:01;6.00;74.60
63277;DHT22;49403;51.046;13.780;2024-01-30T00:36:32;6.00;74.50
63277;DHT22;49403;51.046;13.780;2024-01-30T00:37:04;6.00;74.80
63277;DHT22;49403;51.046;13.780;2024-01-30T00:37:35;6.00;74.60
63277;DHT22;49403;51.046;13.780;2024-01-30T00:38:06;7.20;75.60
63277;DHT22;49403;51.046;13.780;2024-01-30T00:38:38;5.70;74.20
63277;DHT22;49403;51.046;13.780;2024-01-30T00:39:09;5.80;74.60
63277;DHT22;49403;51.046;13.780;2024-01-30T00:39:40;6.00;74.50
63277;DHT22;49403;51.046;13.780;2024-01-30T00:40:11;6.00;74.70
63277;DHT22;49403;51.046;13.780;2024-01-30T00:40:46;6.00;74.60
63277;DHT22;49403;51.046;13.780;2024-01-30T00:41:19;6.00;74.40
63277;DHT22;49403;51.046;13.780;2024-01-30T00:41:50;6.20;74.70
63277;DHT22;49403;51.046;13.780;2024-01-30T00:42:21;6.00;74.60
63277;DHT22;49403;51.046;13.780;2024-01-30T00:42:54;6.00;74.40
63277;DHT22;49403;51.046;13.780;2024-01-30T00:43:25;6.00;74.40
63277;DHT22;49403;51.046;13.780;2024-01-30T00:43:56;6.60;74.80
63277;DHT22;49403;51.046;13.780;2024-01-30T00:44:27;7.10;75.50
63277;DHT22;49403;51.046;13.780;2024-01-30T00:44:58;6.00;74.30
63277;DHT22;49403;51.046;13.780;2024-01-30T00:45:29;6.00;74.40
63277;DHT22;49403;51.046;13.780;2024-01-30T00:46:00;6.30;74.60
63277;DHT22;49403;51.046;13.780;2024-01-30T00:46:31;6.00;74.40
63277;DHT22;49403;51.046;13.780;2024-01-30T00:47:02;6.00;74.40
63277;DHT22;49403;51.046;13.780;2024-01-30T00:47:32;4.90;73.40
63277;DHT22;49403;51.046;13.780;2024-01-30T00:48:04;6.00;74.30
63277;DHT22;49403;51.046;13.780;2024-01-30T00:48:35;5.80;74.00
63277;DHT22;49403;51.046;13.780;2024-01-30T00:49:06;7.70;76.20
63277;DHT22;49403;51.046;13.780;2024-01-30T00:49:36;5.90;74.50
63277;DHT22;49403;51.046;13.780;2024-01-30T00:50:08;5.90;74.60
63277;DHT22;49403;51.046;13.780;2024-01-30T00:50:38;5.90;74.60
63277;DHT22;49403;51.046;13.780;2024-01-30T00:51:09;5.90;74.60
63277;DHT22;49403;51.046;13.780;2024-01-30T00:51:40;5.90;74.60
63277;DHT22;49403;51.046;13.780;2024-01-30T00:52:11;5.90;74.50
63277;DHT22;49403;51.046;13.780;2024-01-30T00:52:42;7.00;75.50
63277;DHT22;49403;51.046;13.780;2024-01-30T00:53:15;7.10;75.60
63277;DHT22;49403;51.046;13.780;2024-01-30T00:53:47;5.90;74.90
63277;DHT22;49403;51.046;13.780;2024-01-30T00:54:18;5.90;74.60
63277;DHT22;49403;51.046;13.780;2024-01-30T00:54:48;5.90;74.70
63277;DHT22;49403;51.046;13.780;2024-01-30T00:55:19;5.90;74.60
63277;DHT22;49403;51.046;13.780;2024-01-30T00:55:50;5.90;74.50
63277;DHT22;49403;51.046;13.780;2024-01-30T00:56:21;5.90;74.40
63277;DHT22;49403;51.046;13.780;2024-01-30T00:56:52;5.90;74.50
63277;DHT22;49403;51.046;13.780;2024-01-30T00:57:23;5.90;74.60
63277;DHT22;49403;51.046;13.780;2024-01-30T00:57:54;5.90;74.70
63277;DHT22;49403;51.046;13.780;2024-01-30T00:58:24;5.90;74.80
63277;DHT22;49403;51.046;13.780;2024-01-30T00:58:56;5.80;74.60
63277;DHT22;49403;51.046;13.780;2024-01-30T00:59:26;5.90;74.60
63277;DHT22;49403;51.046;13.780;2024-01-30T00:59:57;5.80;74.70
63277;DHT22;49403;51.046;13.780;2024-01-30T01:00:28;5.80;74.70
63277;DHT22;49403;51.046;13.780;2024-01-30T01:00:59;5.50;74.30
63277;DHT22;49403;51.046;13.780;2024-01-30T01:01:30;5.80;74.60
63277;DHT22;49403;51.046;13.780;2024-01-30T01:02:01;6.70;75.40
63277;DHT22;49403;51.046;13.780;2024-01-30T01:02:32;6.00;74.70
63277;DHT22;49403;51.046;13.780;2024-01-30T01:03:03;6.50;75.20
63277;DHT22;49403;51.046;13.780;2024-01-30T01:03:34;5.80;74.40
63277;DHT22;49403;51.046;13.780;2024-01-30T01:04:05;5.80;74.60
63277;DHT22;49403;51.046;13.780;2024-01-30T01:04:36;5.80;74.90
63277;DHT22;49403;51.046;13.780;2024-01-30T01:05:07;5.80;74.60
63277;DHT22;49403;51.046;13.780;2024-01-30T01:05:38;5.20;74.20
63277;DHT22;49403;51.046;13.780;2024-01-30T01:06:09;6.50;75.60
63277;DHT22;49403;51.046;13.780;2024-01-30T01:06:41;5.80;74.70
63277;DHT22;49403;51.046;13.780;2024-01-30T01:07:16;6.00;74.80
63277;DHT22;49403;51.046;13.780;2024-01-30T01:07:47;5.70;74.60
63277;DHT22;49403;51.046;13.780;2024-01-30T01:08:21;5.80;74.50
63277;DHT22;49403;51.046;13.780;2024-01-30T01:08:51;5.70;74.80
63277;DHT22;49403;51.046;13.780;2024-01-30T01:09:22;5.80;74.90
63277;DHT22;49403;51.046;13.780;2024-01-30T01:09:53;5.70;74.70
63277;DHT22;49403;51.046;13.780;2024-01-30T01:10:24;5.70;74.80
63277;DHT22;49403;51.046;13.780;2024-01-30T01:10:55;5.70;74.80
63277;DHT22;49403;51.046;13.780;2024-01-30T01:11:26;5.70;74.80
63277;DHT22;49403;51.046;13.780;2024-01-30T01:11:57;5.70;74.80
63277;DHT22;49403;51.046;13.780;2024-01-30T01:12:27;5.70;74.80
63277;DHT22;49403;51.046;13.780;2024-01-30T01:12:58;5.70;74.60
63277;DHT22;49403;51.046;13.780;2024-01-30T01:13:29;6.10;75.20
63277;DHT22;49403;51.046;13.780;2024-01-30T01:14:00;5.70;75.00
63277;DHT22;49403;51.046;13.780;2024-01-30T01:14:31;5.70;74.90
63277;DHT22;49403;51.046;13.780;2024-01-30T01:15:02;5.60;74.70
63277;DHT22;49403;51.046;13.780;2024-01-30T01:15:33;5.70;74.70
63277;DHT22;49403;51.046;13.780;2024-01-30T01:16:04;5.70;74.90
63277;DHT22;49403;51.046;13.780;2024-01-30T01:16:35;5.70;74.90
63277;DHT22;49403;51.046;13.780;2024-01-30T01:17:06;5.60;74.90
63277;DHT22;49403;51.046;13.780;2024-01-30T01:17:40;5.70;75.20
63277;DHT22;49403;51.046;13.780;2024-01-30T01:18:11;5.70;74.50
63277;DHT22;49403;51.046;13.780;2024-01-30T01:18:42;5.70;75.00
63277;DHT22;49403;51.046;13.780;2024-01-30T01:19:13;5.70;74.90
63277;DHT22;49403;51.046;13.780;2024-01-30T01:19:44;5.70;75.00
63277;DHT22;49403;51.046;13.780;2024-01-30T01:20:15;5.70;74.60
63277;DHT22;49403;51.046;13.780;2024-01-30T01:20:46;5.70;75.00
63277;DHT22;49403;51.046;13.780;2024-01-30T01:21:17;4.70;74.00
63277;DHT22;49403;51.046;13.780;2024-01-30T01:21:48;5.60;75.00
63277;DHT22;49403;51.046;13.780;2024-01-30T01:22:19;5.60;75.00
63277;DHT22;49403;51.046;13.780;2024-01-30T01:22:49;5.60;75.10
63277;DHT22;49403;51.046;13.780;2024-01-30T01:23:20;5.60;75.10
63277;DHT22;49403;51.046;13.780;2024-01-30T01:23:51;5.70;75.10
63277;DHT22;49403;51.046;13.780;2024-01-30T01:24:22;5.70;75.10
63277;DHT22;49403;51.046;13.780;2024-01-30T01:24:53;5.70;75.40
63277;DHT22;49403;51.046;13.780;2024-01-30T01:25:24;5.70;75.10
63277;DHT22;49403;51.046;13.780;2024-01-30T01:25:55;5.70;75.20
63277;DHT22;49403;51.046;13.780;2024-01-30T01:26:26;5.70;75.00
63277;DHT22;49403;51.046;13.780;2024-01-30T01:26:57;5.60;75.00
63277;DHT22;49403;51.046;13.780;2024-01-30T01:27:28;5.70;74.80
63277;DHT22;49403;51.046;13.780;2024-01-30T01:27:59;5.70;75.20
63277;DHT22;49403;51.046;13.780;2024-01-30T01:28:31;5.70;75.30
63277;DHT22;49403;51.046;13.780;2024-01-30T01:29:03;5.70;75.10
63277;DHT22;49403;51.046;13.780;2024-01-30T01:29:40;5.60;74.90
63277;DHT22;49403;51.046;13.780;2024-01-30T01:30:11;6.10;75.50
63277;DHT22;49403;51.046;13.780;2024-01-30T01:30:44;5.70;74.80
63277;DHT22;49403;51.046;13.780;2024-01-30T01:31:16;5.70;75.10
63277;DHT22;49403;51.046;13.780;2024-01-30T01:31:48;6.80;76.10
63277;DHT22;49403;51.046;13.780;2024-01-30T01:32:19;5.70;75.20
63277;DHT22;49403;51.046;13.780;2024-01-30T01:32:50;5.70;75.10
63277;DHT22;49403;51.046;13.780;2024-01-30T01:33:25;5.50;75.20
63277;DHT22;49403;51.046;13.780;2024-01-30T01:33:56;5.60;76.00
63277;DHT22;49403;51.046;13.780;2024-01-30T01:34:27;5.60;75.30
63277;DHT22;49403;51.046;13.780;2024-01-30T01:34:58;5.60;75.30
63277;DHT22;49403;51.046;13.780;2024-01-30T01:35:28;5.90;75.40
63277;DHT22;49403;51.046;13.780;2024-01-30T01:36:00;5.60;75.40
63277;DHT22;49403;51.046;13.780;2024-01-30T01:36:33;5.60;75.30
63277;DHT22;49403;51.046;13.780;2024-01-30T01:37:03;5.60;75.40
63277;DHT22;49403;51.046;13.780;2024-01-30T01:37:34;5.60;75.50
63277;DHT22;49403;51.046;13.780;2024-01-30T01:38:05;5.60;75.70
63277;DHT22;49403;51.046;13.780;2024-01-30T01:38:36;5.60;75.60
63277;DHT22;49403;51.046;13.780;2024-01-30T01:39:07;5.60;75.60
63277;DHT22;49403;51.046;13.780;2024-01-30T01:39:39;5.60;75.70
63277;DHT22;49403;51.046;13.780;2024-01-30T01:40:10;5.60;75.60
63277;DHT22;49403;51.046;13.780;2024-01-30T01:40:40;7.10;76.90
63277;DHT22;49403;51.046;13.780;2024-01-30T01:41:11;5.60;75.60
63277;DHT22;49403;51.046;13.780;2024-01-30T01:41:42;5.60;75.60
63277;DHT22;49403;51.046;13.780;2024-01-30T01:42:13;5.60;75.50
63277;DHT22;49403;51.046;13.780;2024-01-30T01:42:44;5.60;75.50
63277;DHT22;49403;51.046;13.780;2024-01-30T01:43:15;5.60;75.60
63277;DHT22;49403;51.046;13.780;2024-01-30T01:43:46;5.60;75.70
63277;DHT22;49403;51.046;13.780;2024-01-30T01:44:17;5.60;75.60
63277;DHT22;49403;51.046;13.780;2024-01-30T01:44:49;5.40;75.30
63277;DHT22;49403;51.046;13.780;2024-01-30T01:45:20;5.60;75.70
63277;DHT22;49403;51.046;13.780;2024-01-30T01:45:51;5.60;75.30
63277;DHT22;49403;51.046;13.780;2024-01-30T01:46:22;5.60;75.60
63277;DHT22;49403;51.046;13.780;2024-01-30T01:46:54;5.60;75.60
63277;DHT22;49403;51.046;13.780;2024-01-30T01:47:25;5.60;75.30
63277;DHT22;49403;51.046;13.780;2024-01-30T01:47:56;6.60;76.50
63277;DHT22;49403;51.046;13.780;2024-01-30T01:48:27;5.60;75.60
63277;DHT22;49403;51.046;13.780;2024-01-30T01:48:58;5.60;75.70
63277;DHT22;49403;51.046;13.780;2024-01-30T01:49:30;4.40;74.30
63277;DHT22;49403;51.046;13.780;2024-01-30T01:50:01;5.60;75.70
63277;DHT22;49403;51.046;13.780;2024-01-30T01:50:32;5.60;75.30
63277;DHT22;49403;51.046;13.780;2024-01-30T01:51:03;5.60;75.60
63277;DHT22;49403;51.046;13.780;2024-01-30T01:51:36;5.30;75.30
63277;DHT22;49403;51.046;13.780;2024-01-30T01:52:07;5.60;75.30
63277;DHT22;49403;51.046;13.780;2024-01-30T01:52:40;5.60;75.60
63277;DHT22;49403;51.046;13.780;2024-01-30T01:53:12;5.60;75.40
63277;DHT22;49403;51.046;13.780;2024-01-30T01:53:44;5.60;75.50
63277;DHT22;49403;51.046;13.780;2024-01-30T01:54:15;5.60;76.60
63277;DHT22;49403;51.046;13.780;2024-01-30T01:54:47;5.40;75.20
63277;DHT22;49403;51.046;13.780;2024-01-30T01:55:21;5.60;75.80
63277;DHT22;49403;51.046;13.780;2024-01-30T01:55:52;5.60;75.50
63277;DHT22;49403;51.046;13.780;2024-01-30T01:56:24;3.90;74.00
63277;DHT22;49403;51.046;13.780;2024-01-30T01:56:57;5.60;75.50
63277;DHT22;49403;51.046;13.780;2024-01-30T01:57:27;5.50;76.00
63277;DHT22;49403;51.046;13.780;2024-01-30T01:57:58;4.60;75.00
63277;DHT22;49403;51.046;13.780;2024-01-30T01:58:30;5.50;75.50
63277;DHT22;49403;51.046;13.780;2024-01-30T01:59:06;5.50;75.60
63277;DHT22;49403;51.046;13.780;2024-01-30T01:59:38;5.50;75.70
63277;DHT22;49403;51.046;13.780;2024-01-30T02:00:11;5.50;75.90
63277;DHT22;49403;51.046;13.780;2024-01-30T02:00:42;6.10;76.90
63277;DHT22;49403;51.046;13.780;2024-01-30T02:01:13;5.50;75.90
63277;DHT22;49403;51.046;13.780;2024-01-30T02:01:45;5.50;75.70
63277;DHT22;49403;51.046;13.780;2024-01-30T02:02:19;5.50;75.70
63277;DHT22;49403;51.046;13.780;2024-01-30T02:02:52;5.50;75.80
63277;DHT22;49403;51.046;13.780;2024-01-30T02:03:24;5.50;75.80
63277;DHT22;49403;51.046;13.780;2024-01-30T02:03:55;5.50;76.10
63277;DHT22;49403;51.046;13.780;2024-01-30T02:04:26;5.50;76.20
63277;DHT22;49403;51.046;13.780;2024-01-30T02:04:57;5.50;76.00
63277;DHT22;49403;51.046;13.780;2024-01-30T02:05:29;5.50;75.90
63277;DHT22;49403;51.046;13.780;2024-01-30T02:06:01;5.50;75.90
63277;DHT22;49403;51.046;13.780;2024-01-30T02:06:33;5.40;75.80
63277;DHT22;49403;51.046;13.780;2024-01-30T02:07:04;5.50;76.10
63277;DHT22;49403;51.046;13.780;2024-01-30T02:07:35;5.40;76.30
63277;DHT22;49403;51.046;13.780;2024-01-30T02:08:06;5.40;76.20
63277;DHT22;49403;51.046;13.780;2024-01-30T02:08:39;5.40;75.90
63277;DHT22;49403;51.046;13.780;2024-01-30T02:09:10;5.50;76.40
63277;DHT22;49403;51.046;13.780;2024-01-30T02:09:41;5.50;76.30
63277;DHT22;49403;51.046;13.780;2024-01-30T02:10:12;5.50;76.60
63277;DHT22;49403;51.046;13.780;2024-01-30T02:10:43;5.40;76.40
63277;DHT22;49403;51.046;13.780;2024-01-30T02:11:14;5.40;76.50
63277;DHT22;49403;51.046;13.780;2024-01-30T02:11:47;5.30;76.40
63277;DHT22;49403;51.046;13.780;2024-01-30T02:12:18;5.40;76.50
63277;DHT22;49403;51.046;13.780;2024-01-30T02:12:49;5.40;76.40
63277;DHT22;49403;51.046;13.780;2024-01-30T02:13:21;7.00;77.90
63277;DHT22;49403;51.046;13.780;2024-01-30T02:13:52;5.40;76.50
63277;DHT22;49403;51.046;13.780;2024-01-30T02:14:23;5.40;76.40
63277;DHT22;49403;51.046;13.780;2024-01-30T02:14:54;5.40;76.60
63277;DHT22;49403;51.046;13.780;2024-01-30T02:15:25;5.40;76.40
63277;DHT22;49403;51.046;13.780;2024-01-30T02:15:56;5.40;76.50
63277;DHT22;49403;51.046;13.780;2024-01-30T02:16:27;5.40;76.50
63277;DHT22;49403;51.046;13.780;2024-01-30T02:16:58;5.30;76.40
63277;DHT22;49403;51.046;13.780;2024-01-30T02:17:29;5.40;76.40
63277;DHT22;49403;51.046;13.780;2024-01-30T02:18:00;5.40;76.50
63277;DHT22;49403;51.046;13.780;2024-01-30T02:18:31;5.40;76.40
63277;DHT22;49403;51.046;13.780;2024-01-30T02:19:02;5.40;76.40
63277;DHT22;49403;51.046;13.780;2024-01-30T02:19:33;5.40;76.40
63277;DHT22;49403;51.046;13.780;2024-01-30T02:20:04;5.40;76.40
63277;DHT22;49403;51.046;13.780;2024-01-30T02:20:35;5.40;76.20
63277;DHT22;49403;51.046;13.780;2024-01-30T02:21:08;5.40;76.20
63277;DHT22;49403;51.046;13.780;2024-01-30T02:21:39;5.40;76.60
63277;DHT22;49403;51.046;13.780;2024-01-30T02:22:10;5.40;76.60
63277;DHT22;49403;51.046;13.780;2024-01-30T02:22:41;5.40;76.90
63277;DHT22;49403;51.046;13.780;2024-01-30T02:23:15;5.40;76.20
63277;DHT22;49403;51.046;13.780;2024-01-30T02:23:47;5.40;76.00
63277;DHT22;49403;51.046;13.780;2024-01-30T02:24:19;5.40;76.00
63277;DHT22;49403;51.046;13.780;2024-01-30T02:24:50;6.60;77.60
63277;DHT22;49403;51.046;13.780;2024-01-30T02:25:25;5.40;76.40
63277;DHT22;49403;51.046;13.780;2024-01-30T02:26:00;5.40;76.20
63277;DHT22;49403;51.046;13.780;2024-01-30T02:26:31;5.30;76.60
63277;DHT22;49403;51.046;13.780;2024-01-30T02:27:02;6.00;77.00
63277;DHT22;49403;51.046;13.780;2024-01-30T02:27:33;5.40;76.60
63277;DHT22;49403;51.046;13.780;2024-01-30T02:28:04;5.40;76.50
63277;DHT22;49403;51.046;13.780;2024-01-30T02:28:35;5.30;76.70
63277;DHT22;49403;51.046;13.780;2024-01-30T02:29:06;5.40;76.70
63277;DHT22;49403;51.046;13.780;2024-01-30T02:29:36;5.40;76.60
63277;DHT22;49403;51.046;13.780;2024-01-30T02:30:08;5.30;76.50
63277;DHT22;49403;51.046;13.780;2024-01-30T02:30:39;5.30;76.20
63277;DHT22;49403;51.046;13.780;2024-01-30T02:31:10;5.30;76.30
63277;DHT22;49403;51.046;13.780;2024-01-30T02:31:41;5.30;76.70
63277;DHT22;49403;51.046;13.780;2024-01-30T02:32:12;5.30;76.70
63277;DHT22;49403;51.046;13.780;2024-01-30T02:32:43;5.30;76.80
63277;DHT22;49403;51.046;13.780;2024-01-30T02:33:14;5.30;76.70
63277;DHT22;49403;51.046;13.780;2024-01-30T02:33:45;5.30;76.70
63277;DHT22;49403;51.046;13.780;2024-01-30T02:34:16;5.30;76.80
63277;DHT22;49403;51.046;13.780;2024-01-30T02:34:49;5.30;76.40
63277;DHT22;49403;51.046;13.780;2024-01-30T02:35:20;5.30;76.80
63277;DHT22;49403;51.046;13.780;2024-01-30T02:35:51;5.30;76.80
63277;DHT22;49403;51.046;13.780;2024-01-30T02:36:22;5.30;76.80
63277;DHT22;49403;51.046;13.780;2024-01-30T02:36:53;5.30;76.90
63277;DHT22;49403;51.046;13.780;2024-01-30T02:37:24;5.30;77.00
63277;DHT22;49403;51.046;13.780;2024-01-30T02:37:55;5.30;76.80
63277;DHT22;49403;51.046;13.780;2024-01-30T02:38:26;5.30;77.00
63277;DHT22;49403;51.046;13.780;2024-01-30T02:38:57;5.30;77.30
63277;DHT22;49403;51.046;13.780;2024-01-30T02:39:28;5.30;76.90
63277;DHT22;49403;51.046;13.780;2024-01-30T02:39:59;5.00;76.70
63277;DHT22;49403;51.046;13.780;2024-01-30T02:40:30;5.30;77.10
63277;DHT22;49403;51.046;13.780;2024-01-30T02:41:01;5.30;76.50
63277;DHT22;49403;51.046;13.780;2024-01-30T02:41:32;5.90;77.40
63277;DHT22;49403;51.046;13.780;2024-01-30T02:42:03;5.30;76.90
63277;DHT22;49403;51.046;13.780;2024-01-30T02:42:34;5.30;76.80
63277;DHT22;49403;51.046;13.780;2024-01-30T02:43:05;5.30;77.00
63277;DHT22;49403;51.046;13.780;2024-01-30T02:43:36;5.30;76.90
63277;DHT22;49403;51.046;13.780;2024-01-30T02:44:06;5.20;76.90
63277;DHT22;49403;51.046;13.780;2024-01-30T02:44:37;5.30;76.70
63277;DHT22;49403;51.046;13.780;2024-01-30T02:45:09;5.30;77.00
63277;DHT22;49403;51.046;13.780;2024-01-30T02:45:40;4.10;75.60
63277;DHT22;49403;51.046;13.780;2024-01-30T02:46:11;5.30;76.90
63277;DHT22;49403;51.046;13.780;2024-01-30T02:46:42;5.60;77.20
63277;DHT22;49403;51.046;13.780;2024-01-30T02:47:13;5.20;76.90
63277;DHT22;49403;51.046;13.780;2024-01-30T02:47:44;5.30;77.10
63277;DHT22;49403;51.046;13.780;2024-01-30T02:48:14;5.30;77.10
63277;DHT22;49403;51.046;13.780;2024-01-30T02:48:45;5.30;77.10
63277;DHT22;49403;51.046;13.780;2024-01-30T02:49:16;5.20;77.10
63277;DHT22;49403;51.046;13.780;2024-01-30T02:49:47;5.30;77.20
63277;DHT22;49403;51.046;13.780;2024-01-30T02:50:18;5.90;77.80
63277;DHT22;49403;51.046;13.780;2024-01-30T02:50:49;5.20;77.10
63277;DHT22;49403;51.046;13.780;2024-01-30T02:51:20;5.20;77.20
63277;DHT22;49403;51.046;13.780;2024-01-30T02:51:53;5.20;77.00
63277;DHT22;49403;51.046;13.780;2024-01-30T02:52:24;6.40;77.80
63277;DHT22;49403;51.046;13.780;2024-01-30T02:52:55;5.30;77.20
63277;DHT22;49403;51.046;13.780;2024-01-30T02:53:26;5.30;77.20
63277;DHT22;49403;51.046;13.780;2024-01-30T02:53:57;5.20;77.20
63277;DHT22;49403;51.046;13.780;2024-01-30T02:54:28;5.20;77.00
63277;DHT22;49403;51.046;13.780;2024-01-30T02:55:01;5.20;77.10
63277;DHT22;49403;51.046;13.780;2024-01-30T02:55:32;6.00;77.60
63277;DHT22;49403;51.046;13.780;2024-01-30T02:56:04;5.20;76.90
63277;DHT22;49403;51.046;13.780;2024-01-30T02:56:36;5.10;76.90
63277;DHT22;49403;51.046;13.780;2024-01-30T02:57:07;5.20;77.20
63277;DHT22;49403;51.046;13.780;2024-01-30T02:57:38;5.20;77.40
63277;DHT22;49403;51.046;13.780;2024-01-30T02:58:09;5.20;77.30
63277;DHT22;49403;51.046;13.780;2024-01-30T02:58:40;6.30;78.40
63277;DHT22;49403;51.046;13.780;2024-01-30T02:59:11;5.20;77.40
63277;DHT22;49403;51.046;13.780;2024-01-30T02:59:42;5.10;77.40
63277;DHT22;49403;51.046;13.780;2024-01-30T03:00:13;5.20;77.50
63277;DHT22;49403;51.046;13.780;2024-01-30T03:00:44;4.50;76.60
63277;DHT22;49403;51.046;13.780;2024-01-30T03:01:15;5.10;77.60
63277;DHT22;49403;51.046;13.780;2024-01-30T03:01:46;5.10;77.50
63277;DHT22;49403;51.046;13.780;2024-01-30T03:02:18;5.10;77.50
63277;DHT22;49403;51.046;13.780;2024-01-30T03:02:49;5.20;77.60
63277;DHT22;49403;51.046;13.780;2024-01-30T03:03:20;6.60;78.90
63277;DHT22;49403;51.046;13.780;2024-01-30T03:03:51;5.30;77.60
63277;DHT22;49403;51.046;13.780;2024-01-30T03:04:21;5.20;77.60
63277;DHT22;49403;51.046;13.780;2024-01-30T03:04:53;5.20;77.50
63277;DHT22;49403;51.046;13.780;2024-01-30T03:05:24;4.90;77.30
63277;DHT22;49403;51.046;13.780;2024-01-30T03:05:55;5.20;77.60
63277;DHT22;49403;51.046;13.780;2024-01-30T03:06:26;5.60;78.00
63277;DHT22;49403;51.046;13.780;2024-01-30T03:06:57;5.20;77.50
63277;DHT22;49403;51.046;13.780;2024-01-30T03:07:28;5.10;77.60
63277;DHT22;49403;51.046;13.780;2024-01-30T03:07:59;5.00;77.40
63277;DHT22;49403;51.046;13.780;2024-01-30T03:08:30;5.20;78.00
63277;DHT22;49403;51.046;13.780;2024-01-30T03:09:01;5.10;77.60
63277;DHT22;49403;51.046;13.780;2024-01-30T03:09:32;5.10;77.70
63277;DHT22;49403;51.046;13.780;2024-01-30T03:10:06;5.10;77.70
63277;DHT22;49403;51.046;13.780;2024-01-30T03:10:37;5.10;77.30
63277;DHT22;49403;51.046;13.780;2024-01-30T03:11:08;5.80;78.40
63277;DHT22;49403;51.046;13.780;2024-01-30T03:11:39;5.10;77.40
63277;DHT22;49403;51.046;13.780;2024-01-30T03:12:10;5.10;77.70
63277;DHT22;49403;51.046;13.780;2024-01-30T03:12:41;4.90;77.60
63277;DHT22;49403;51.046;13.780;2024-01-30T03:13:12;5.00;77.80
63277;DHT22;49403;51.046;13.780;2024-01-30T03:13:43;5.10;78.20
63277;DHT22;49403;51.046;13.780;2024-01-30T03:14:14;5.00;78.00
63277;DHT22;49403;51.046;13.780;2024-01-30T03:14:45;5.10;78.20
63277;DHT22;49403;51.046;13.780;2024-01-30T03:15:15;5.00;77.80
63277;DHT22;49403;51.046;13.780;2024-01-30T03:15:46;5.00;78.00
63277;DHT22;49403;51.046;13.780;2024-01-30T03:16:17;5.00;78.00
63277;DHT22;49403;51.046;13.780;2024-01-30T03:16:48;5.00;78.10
63277;DHT22;49403;51.046;13.780;2024-01-30T03:17:19;5.00;78.10